sensor_id;sensor_type;location;lat;lon;timestamp;pressure;altitude;pressure_sealevel;temperature;humidity
38852;BME280;24605;50.092;9.182;2023-09-18T00:01:34;157376.22;;;21.04;86.91
38852;BME280;24605;50.092;9.182;2023-09-18T00:04:00;157356.53;;;20.96;87.63
38852;BME280;24605;50.092;9.182;2023-09-18T00:06:26;157365.72;;;21.00;87.40
38852;BME280;24605;50.092;9.182;2023-09-18T00:08:53;157384.09;;;21.07;87.08
38852;BME280;24605;50.092;9.182;2023-09-18T00:11:19;157397.19;;;21.12;86.76
38852;BME280;24605;50.092;9.182;2023-09-18T00:13:46;157381.47;;;21.06;86.95
38852;BME280;24605;50.092;9.182;2023-09-18T00:16:14;157374.91;;;21.03;87.29
38852;BME280;24605;50.092;9.182;2023-09-18T00:18:40;157372.28;;;21.02;87.13
38852;BME280;24605;50.092;9.182;2023-09-18T00:21:07;157353.91;;;20.95;87.68
38852;BME280;24605;50.092;9.182;2023-09-18T00:23:35;157356.53;;;20.96;87.79
38852;BME280;24605;50.092;9.182;2023-09-18T00:26:02;157338.19;;;20.89;88.06
38852;BME280;24605;50.092;9.182;2023-09-18T00:28:28;157325.03;;;20.84;88.67
38852;BME280;24605;50.092;9.182;2023-09-18T00:30:55;157301.41;;;20.74;89.08
38852;BME280;24605;50.092;9.182;2023-09-18T00:33:22;157306.66;;;20.76;89.11
38852;BME280;24605;50.092;9.182;2023-09-18T00:35:50;157346.03;;;20.92;88.30
38852;BME280;24605;50.092;9.182;2023-09-18T00:38:17;157305.38;;;20.76;88.66
38852;BME280;24605;50.092;9.182;2023-09-18T00:40:44;157328.94;;;20.85;88.37
38852;BME280;24605;50.092;9.182;2023-09-18T00:43:11;157311.94;;;20.78;88.99
38852;BME280;24605;50.092;9.182;2023-09-18T00:45:40;157286.91;;;20.69;89.36
38852;BME280;24605;50.092;9.182;2023-09-18T00:48:08;157304.03;;;20.75;89.10
38852;BME280;24605;50.092;9.182;2023-09-18T00:50:36;157317.13;;;20.80;88.78
38852;BME280;24605;50.092;9.182;2023-09-18T00:53:04;157334.22;;;20.87;88.44
38852;BME280;24605;50.092;9.182;2023-09-18T00:55:31;157310.59;;;20.78;88.89
38852;BME280;24605;50.092;9.182;2023-09-18T00:57:58;157319.78;;;20.81;88.73
38852;BME280;24605;50.092;9.182;2023-09-18T01:00:25;157286.91;;;20.69;89.65
38852;BME280;24605;50.092;9.182;2023-09-18T01:02:51;157262.00;;;20.59;90.09
38852;BME280;24605;50.092;9.182;2023-09-18T01:05:18;157281.69;;;20.66;89.86
38852;BME280;24605;50.092;9.182;2023-09-18T01:07:46;157277.72;;;20.65;89.77
38852;BME280;24605;50.092;9.182;2023-09-18T01:10:13;157247.56;;;20.53;89.45
38852;BME280;24605;50.092;9.182;2023-09-18T01:12:46;157255.44;;;20.56;89.96
38852;BME280;24605;50.092;9.182;2023-09-18T01:15:17;157277.72;;;20.65;89.39
38852;BME280;24605;50.092;9.182;2023-09-18T01:17:45;157259.38;;;20.58;89.72
38852;BME280;24605;50.092;9.182;2023-09-18T01:20:12;157273.81;;;20.63;89.30
38852;BME280;24605;50.092;9.182;2023-09-18T01:22:40;157292.16;;;20.71;88.91
38852;BME280;24605;50.092;9.182;2023-09-18T01:25:08;157317.13;;;20.80;88.09
38852;BME280;24605;50.092;9.182;2023-09-18T01:27:35;157331.59;;;20.86;87.82
38852;BME280;24605;50.092;9.182;2023-09-18T01:30:02;157318.47;;;20.81;87.12
38852;BME280;24605;50.092;9.182;2023-09-18T01:32:30;157377.53;;;21.04;86.57
38852;BME280;24605;50.092;9.182;2023-09-18T01:35:00;157372.28;;;21.02;86.60
38852;BME280;24605;50.092;9.182;2023-09-18T01:37:29;157322.41;;;20.82;87.73
38852;BME280;24605;50.092;9.182;2023-09-18T01:39:57;157263.28;;;20.59;88.22
38852;BME280;24605;50.092;9.182;2023-09-18T01:42:25;157322.41;;;20.82;87.63
38852;BME280;24605;50.092;9.182;2023-09-18T01:44:53;157292.16;;;20.71;88.15
38852;BME280;24605;50.092;9.182;2023-09-18T01:47:21;157281.69;;;20.66;87.92
38852;BME280;24605;50.092;9.182;2023-09-18T01:49:48;157280.38;;;20.66;88.51
38852;BME280;24605;50.092;9.182;2023-09-18T01:52:15;157277.72;;;20.65;88.02
38852;BME280;24605;50.092;9.182;2023-09-18T01:54:41;157259.38;;;20.58;88.28
38852;BME280;24605;50.092;9.182;2023-09-18T01:57:09;157276.44;;;20.64;88.05
38852;BME280;24605;50.092;9.182;2023-09-18T01:59:37;157217.41;;;20.41;87.95
38852;BME280;24605;50.092;9.182;2023-09-18T02:02:05;157188.50;;;20.30;88.04
38852;BME280;24605;50.092;9.182;2023-09-18T02:04:34;157216.06;;;20.41;89.04
38852;BME280;24605;50.092;9.182;2023-09-18T02:07:01;157235.75;;;20.48;89.03
38852;BME280;24605;50.092;9.182;2023-09-18T02:09:27;157260.72;;;20.58;88.26
38852;BME280;24605;50.092;9.182;2023-09-18T02:11:54;157248.91;;;20.54;88.54
38852;BME280;24605;50.092;9.182;2023-09-18T02:14:21;157244.94;;;20.52;88.43
38852;BME280;24605;50.092;9.182;2023-09-18T02:16:48;157244.94;;;20.52;88.07
38852;BME280;24605;50.092;9.182;2023-09-18T02:19:15;157255.44;;;20.56;87.11
38852;BME280;24605;50.092;9.182;2023-09-18T02:21:42;157314.56;;;20.79;86.53
38852;BME280;24605;50.092;9.182;2023-09-18T02:24:09;157328.94;;;20.85;85.79
38852;BME280;24605;50.092;9.182;2023-09-18T02:26:36;157319.78;;;20.81;86.00
38852;BME280;24605;50.092;9.182;2023-09-18T02:29:06;157332.91;;;20.87;85.74
38852;BME280;24605;50.092;9.182;2023-09-18T02:31:34;157343.41;;;20.91;85.09
38852;BME280;24605;50.092;9.182;2023-09-18T02:34:00;157355.22;;;20.95;84.96
38852;BME280;24605;50.092;9.182;2023-09-18T02:36:27;157380.19;;;21.05;84.97
38852;BME280;24605;50.092;9.182;2023-09-18T02:38:53;157314.56;;;20.79;88.58
38852;BME280;24605;50.092;9.182;2023-09-18T02:41:20;157286.91;;;20.69;92.15
38852;BME280;24605;50.092;9.182;2023-09-18T02:43:46;157265.91;;;20.60;95.31
38852;BME280;24605;50.092;9.182;2023-09-18T02:46:13;157162.28;;;20.19;100.00
38852;BME280;24605;50.092;9.182;2023-09-18T02:48:40;157049.41;;;19.75;100.00
38852;BME280;24605;50.092;9.182;2023-09-18T02:51:08;157041.56;;;19.72;100.00
38852;BME280;24605;50.092;9.182;2023-09-18T02:53:34;157049.41;;;19.75;100.00
38852;BME280;24605;50.092;9.182;2023-09-18T02:56:01;157057.31;;;19.78;100.00
38852;BME280;24605;50.092;9.182;2023-09-18T02:58:27;157046.84;;;19.74;100.00
38852;BME280;24605;50.092;9.182;2023-09-18T03:00:56;157052.03;;;19.76;100.00
38852;BME280;24605;50.092;9.182;2023-09-18T03:03:23;157017.97;;;19.63;100.00
38852;BME280;24605;50.092;9.182;2023-09-18T03:05:51;157002.25;;;19.56;100.00
38852;BME280;24605;50.092;9.182;2023-09-18T03:08:17;157020.59;;;19.64;100.00
38852;BME280;24605;50.092;9.182;2023-09-18T03:10:44;157024.50;;;19.65;100.00
38852;BME280;24605;50.092;9.182;2023-09-18T03:13:13;157028.44;;;19.67;100.00
38852;BME280;24605;50.092;9.182;2023-09-18T03:15:44;156981.22;;;19.48;100.00
38852;BME280;24605;50.092;9.182;2023-09-18T03:18:11;156928.81;;;19.28;100.00
38852;BME280;24605;50.092;9.182;2023-09-18T03:20:37;156926.19;;;19.26;100.00
38852;BME280;24605;50.092;9.182;2023-09-18T03:23:05;156871.09;;;19.05;100.00
38852;BME280;24605;50.092;9.182;2023-09-18T03:25:32;156894.69;;;19.14;100.00
38852;BME280;24605;50.092;9.182;2023-09-18T03:27:58;156880.25;;;19.08;100.00
38852;BME280;24605;50.092;9.182;2023-09-18T03:30:25;156890.78;;;19.13;100.00
38852;BME280;24605;50.092;9.182;2023-09-18T03:32:52;156893.41;;;19.14;100.00
38852;BME280;24605;50.092;9.182;2023-09-18T03:35:19;156897.31;;;19.15;100.00
38852;BME280;24605;50.092;9.182;2023-09-18T03:37:47;156834.34;;;18.90;100.00
38852;BME280;24605;50.092;9.182;2023-09-18T03:40:15;156856.72;;;18.99;100.00
38852;BME280;24605;50.092;9.182;2023-09-18T03:42:42;156816.03;;;18.83;100.00
38852;BME280;24605;50.092;9.182;2023-09-18T03:45:09;156816.03;;;18.83;100.00
38852;BME280;24605;50.092;9.182;2023-09-18T03:47:36;156812.09;;;18.82;100.00
38852;BME280;24605;50.092;9.182;2023-09-18T03:50:05;156795.03;;;18.75;100.00
38852;BME280;24605;50.092;9.182;2023-09-18T03:52:31;156780.63;;;18.69;100.00
38852;BME280;24605;50.092;9.182;2023-09-18T03:54:58;156788.50;;;18.72;100.00
38852;BME280;24605;50.092;9.182;2023-09-18T03:57:26;156806.84;;;18.79;100.00
38852;BME280;24605;50.092;9.182;2023-09-18T03:59:52;156785.88;;;18.71;100.00
38852;BME280;24605;50.092;9.182;2023-09-18T04:02:20;156808.13;;;18.80;100.00
38852;BME280;24605;50.092;9.182;2023-09-18T04:04:46;156808.13;;;18.80;100.00
38852;BME280;24605;50.092;9.182;2023-09-18T04:07:13;156818.66;;;18.84;100.00
38852;BME280;24605;50.092;9.182;2023-09-18T04:09:41;156851.47;;;18.97;100.00
38852;BME280;24605;50.092;9.182;2023-09-18T04:12:08;156809.47;;;18.81;100.00
38852;BME280;24605;50.092;9.182;2023-09-18T04:14:36;156809.47;;;18.81;100.00
38852;BME280;24605;50.092;9.182;2023-09-18T04:17:03;156775.38;;;18.67;100.00
38852;BME280;24605;50.092;9.182;2023-09-18T04:19:29;156821.28;;;18.85;100.00
38852;BME280;24605;50.092;9.182;2023-09-18T04:21:56;156843.56;;;18.94;100.00
38852;BME280;24605;50.092;9.182;2023-09-18T04:24:23;156826.47;;;18.87;100.00
38852;BME280;24605;50.092;9.182;2023-09-18T04:26:49;156801.59;;;18.77;100.00
38852;BME280;24605;50.092;9.182;2023-09-18T04:29:17;156795.03;;;18.75;100.00
38852;BME280;24605;50.092;9.182;2023-09-18T04:31:45;156766.19;;;18.63;100.00
38852;BME280;24605;50.092;9.182;2023-09-18T04:34:12;156755.75;;;18.59;100.00
38852;BME280;24605;50.092;9.182;2023-09-18T04:36:39;156760.94;;;18.61;100.00
38852;BME280;24605;50.092;9.182;2023-09-18T04:39:05;156783.25;;;18.70;100.00
38852;BME280;24605;50.092;9.182;2023-09-18T04:41:33;156762.28;;;18.62;100.00
38852;BME280;24605;50.092;9.182;2023-09-18T04:43:59;156758.31;;;18.60;100.00
38852;BME280;24605;50.092;9.182;2023-09-18T04:46:26;156738.69;;;18.53;100.00
38852;BME280;24605;50.092;9.182;2023-09-18T04:48:54;156778.00;;;18.68;100.00
38852;BME280;24605;50.092;9.182;2023-09-18T04:51:20;156772.75;;;18.66;100.00
38852;BME280;24605;50.092;9.182;2023-09-18T04:53:47;156785.88;;;18.71;100.00
38852;BME280;24605;50.092;9.182;2023-09-18T04:56:13;156789.78;;;18.73;100.00
38852;BME280;24605;50.092;9.182;2023-09-18T04:58:40;156798.97;;;18.76;100.00
38852;BME280;24605;50.092;9.182;2023-09-18T05:01:06;156779.34;;;18.69;100.00
38852;BME280;24605;50.092;9.182;2023-09-18T05:03:33;156759.66;;;18.61;100.00
38852;BME280;24605;50.092;9.182;2023-09-18T05:06:01;156793.72;;;18.74;100.00
38852;BME280;24605;50.092;9.182;2023-09-18T05:08:29;156741.31;;;18.54;100.00
38852;BME280;24605;50.092;9.182;2023-09-18T05:10:56;156825.19;;;18.87;100.00
38852;BME280;24605;50.092;9.182;2023-09-18T05:13:23;156823.91;;;18.86;100.00
38852;BME280;24605;50.092;9.182;2023-09-18T05:15:49;156802.88;;;18.78;100.00
38852;BME280;24605;50.092;9.182;2023-09-18T05:18:16;156834.34;;;18.90;100.00
38852;BME280;24605;50.092;9.182;2023-09-18T05:20:42;156788.50;;;18.72;100.00
38852;BME280;24605;50.092;9.182;2023-09-18T05:23:10;156843.56;;;18.94;100.00
38852;BME280;24605;50.092;9.182;2023-09-18T05:25:37;156848.84;;;18.96;100.00
38852;BME280;24605;50.092;9.182;2023-09-18T05:28:04;156856.72;;;18.99;100.00
38852;BME280;24605;50.092;9.182;2023-09-18T05:30:32;156863.25;;;19.02;100.00
38852;BME280;24605;50.092;9.182;2023-09-18T05:33:01;156855.38;;;18.99;100.00
38852;BME280;24605;50.092;9.182;2023-09-18T05:35:30;156829.09;;;18.88;100.00
38852;BME280;24605;50.092;9.182;2023-09-18T05:37:56;156834.34;;;18.90;100.00
38852;BME280;24605;50.092;9.182;2023-09-18T05:40:25;156844.91;;;18.94;100.00
38852;BME280;24605;50.092;9.182;2023-09-18T05:42:53;156850.13;;;18.97;100.00
38852;BME280;24605;50.092;9.182;2023-09-18T05:45:20;156868.50;;;19.04;100.00
38852;BME280;24605;50.092;9.182;2023-09-18T05:47:47;156837.00;;;18.91;100.00
38852;BME280;24605;50.092;9.182;2023-09-18T05:50:14;156808.13;;;18.80;100.00
38852;BME280;24605;50.092;9.182;2023-09-18T05:52:42;156850.13;;;18.97;100.00
38852;BME280;24605;50.092;9.182;2023-09-18T05:55:09;156856.72;;;18.99;100.00
38852;BME280;24605;50.092;9.182;2023-09-18T05:57:37;156863.25;;;19.02;100.00
38852;BME280;24605;50.092;9.182;2023-09-18T06:00:04;156878.97;;;19.08;100.00
38852;BME280;24605;50.092;9.182;2023-09-18T06:02:31;156898.66;;;19.16;100.00
38852;BME280;24605;50.092;9.182;2023-09-18T06:04:58;156889.50;;;19.12;100.00
38852;BME280;24605;50.092;9.182;2023-09-18T06:07:26;156915.66;;;19.22;100.00
38852;BME280;24605;50.092;9.182;2023-09-18T06:09:53;156873.72;;;19.06;100.00
38852;BME280;24605;50.092;9.182;2023-09-18T06:12:19;156920.91;;;19.24;100.00
38852;BME280;24605;50.092;9.182;2023-09-18T06:14:48;156856.72;;;18.99;100.00
38852;BME280;24605;50.092;9.182;2023-09-18T06:17:15;156926.19;;;19.26;100.00
38852;BME280;24605;50.092;9.182;2023-09-18T06:19:42;156913.09;;;19.21;100.00
38852;BME280;24605;50.092;9.182;2023-09-18T06:22:08;156918.28;;;19.23;100.00
38852;BME280;24605;50.092;9.182;2023-09-18T06:24:35;156927.47;;;19.27;100.00
38852;BME280;24605;50.092;9.182;2023-09-18T06:27:02;156955.03;;;19.38;100.00
38852;BME280;24605;50.092;9.182;2023-09-18T06:29:29;156968.13;;;19.43;100.00
38852;BME280;24605;50.092;9.182;2023-09-18T06:31:57;156962.88;;;19.41;100.00
38852;BME280;24605;50.092;9.182;2023-09-18T06:34:23;156968.13;;;19.43;100.00
38852;BME280;24605;50.092;9.182;2023-09-18T06:36:50;157025.81;;;19.66;100.00
38852;BME280;24605;50.092;9.182;2023-09-18T06:39:16;157036.31;;;19.70;100.00
38852;BME280;24605;50.092;9.182;2023-09-18T06:41:43;157098.03;;;19.94;100.00
38852;BME280;24605;50.092;9.182;2023-09-18T06:44:09;157107.19;;;19.98;100.00
38852;BME280;24605;50.092;9.182;2023-09-18T06:46:35;157116.38;;;20.01;100.00
38852;BME280;24605;50.092;9.182;2023-09-18T06:49:03;157157.06;;;20.17;100.00
38852;BME280;24605;50.092;9.182;2023-09-18T06:51:30;157166.25;;;20.21;100.00
38852;BME280;24605;50.092;9.182;2023-09-18T06:53:56;157172.78;;;20.24;100.00
38852;BME280;24605;50.092;9.182;2023-09-18T06:56:23;157195.06;;;20.32;100.00
38852;BME280;24605;50.092;9.182;2023-09-18T06:58:49;157225.28;;;20.44;100.00
38852;BME280;24605;50.092;9.182;2023-09-18T07:01:16;157243.66;;;20.51;100.00
38852;BME280;24605;50.092;9.182;2023-09-18T07:03:44;157296.09;;;20.72;100.00
38852;BME280;24605;50.092;9.182;2023-09-18T07:06:13;157319.78;;;20.81;100.00
38852;BME280;24605;50.092;9.182;2023-09-18T07:08:41;157304.03;;;20.75;100.00
38852;BME280;24605;50.092;9.182;2023-09-18T07:11:08;157290.88;;;20.70;100.00
38852;BME280;24605;50.092;9.182;2023-09-18T07:13:34;157307.97;;;20.77;100.00
38852;BME280;24605;50.092;9.182;2023-09-18T07:16:01;157348.66;;;20.93;100.00
38852;BME280;24605;50.092;9.182;2023-09-18T07:18:28;157339.47;;;20.89;100.00
38852;BME280;24605;50.092;9.182;2023-09-18T07:20:55;157344.72;;;20.91;100.00
38852;BME280;24605;50.092;9.182;2023-09-18T07:23:22;157304.03;;;20.75;100.00
38852;BME280;24605;50.092;9.182;2023-09-18T07:25:49;157290.88;;;20.70;100.00
38852;BME280;24605;50.092;9.182;2023-09-18T07:28:15;157317.13;;;20.80;100.00
38852;BME280;24605;50.092;9.182;2023-09-18T07:30:43;157334.22;;;20.87;100.00
38852;BME280;24605;50.092;9.182;2023-09-18T07:33:11;157353.91;;;20.95;100.00
38852;BME280;24605;50.092;9.182;2023-09-18T07:35:37;157335.56;;;20.88;100.00
38852;BME280;24605;50.092;9.182;2023-09-18T07:38:04;157298.78;;;20.73;100.00
38852;BME280;24605;50.092;9.182;2023-09-18T07:40:32;157327.66;;;20.85;100.00
38852;BME280;24605;50.092;9.182;2023-09-18T07:42:58;157313.22;;;20.79;100.00
38852;BME280;24605;50.092;9.182;2023-09-18T07:45:25;157279.06;;;20.65;100.00
38852;BME280;24605;50.092;9.182;2023-09-18T07:47:51;157262.00;;;20.59;100.00
38852;BME280;24605;50.092;9.182;2023-09-18T07:50:17;157234.47;;;20.48;100.00
38852;BME280;24605;50.092;9.182;2023-09-18T07:52:44;157241.00;;;20.50;100.00
38852;BME280;24605;50.092;9.182;2023-09-18T07:55:10;157210.84;;;20.39;100.00
38852;BME280;24605;50.092;9.182;2023-09-18T07:57:38;157222.66;;;20.43;100.00
38852;BME280;24605;50.092;9.182;2023-09-18T08:00:06;157227.88;;;20.45;100.00
38852;BME280;24605;50.092;9.182;2023-09-18T08:02:37;157259.38;;;20.58;100.00
38852;BME280;24605;50.092;9.182;2023-09-18T08:05:04;157267.25;;;20.61;100.00
38852;BME280;24605;50.092;9.182;2023-09-18T08:07:31;157328.94;;;20.85;100.00
38852;BME280;24605;50.092;9.182;2023-09-18T08:09:57;157367.03;;;21.00;100.00
38852;BME280;24605;50.092;9.182;2023-09-18T08:12:24;157369.66;;;21.01;100.00
38852;BME280;24605;50.092;9.182;2023-09-18T08:14:52;157392.00;;;21.10;100.00
38852;BME280;24605;50.092;9.182;2023-09-18T08:17:18;157414.28;;;21.19;100.00
38852;BME280;24605;50.092;9.182;2023-09-18T08:19:44;157435.28;;;21.27;100.00
38852;BME280;24605;50.092;9.182;2023-09-18T08:22:11;157483.88;;;21.46;100.00
38852;BME280;24605;50.092;9.182;2023-09-18T08:24:40;157503.53;;;21.54;100.00
38852;BME280;24605;50.092;9.182;2023-09-18T08:27:07;157512.72;;;21.57;100.00
38852;BME280;24605;50.092;9.182;2023-09-18T08:29:33;157533.78;;;21.66;100.00
38852;BME280;24605;50.092;9.182;2023-09-18T08:32:01;157523.31;;;21.62;100.00
38852;BME280;24605;50.092;9.182;2023-09-18T08:34:27;157419.53;;;21.21;100.00
38852;BME280;24605;50.092;9.182;2023-09-18T08:36:54;157440.53;;;21.29;100.00
38852;BME280;24605;50.092;9.182;2023-09-18T08:39:20;157412.97;;;21.18;99.72
38852;BME280;24605;50.092;9.182;2023-09-18T08:41:49;157418.19;;;21.20;98.77
38852;BME280;24605;50.092;9.182;2023-09-18T08:44:21;157430.00;;;21.25;99.33
38852;BME280;24605;50.092;9.182;2023-09-18T08:46:51;157436.63;;;21.27;98.96
38852;BME280;24605;50.092;9.182;2023-09-18T08:49:20;157416.91;;;21.20;99.90
38852;BME280;24605;50.092;9.182;2023-09-18T08:51:48;157393.28;;;21.10;100.00
38852;BME280;24605;50.092;9.182;2023-09-18T08:54:15;157377.53;;;21.04;100.00
38852;BME280;24605;50.092;9.182;2023-09-18T08:56:42;157420.84;;;21.21;99.68
38852;BME280;24605;50.092;9.182;2023-09-18T08:59:08;157401.19;;;21.13;99.86
38852;BME280;24605;50.092;9.182;2023-09-18T09:01:35;157381.47;;;21.06;98.31
38852;BME280;24605;50.092;9.182;2023-09-18T09:04:02;157430.00;;;21.25;99.24
38852;BME280;24605;50.092;9.182;2023-09-18T09:06:30;157424.81;;;21.23;99.25
38852;BME280;24605;50.092;9.182;2023-09-18T09:08:57;157374.91;;;21.03;97.93
38852;BME280;24605;50.092;9.182;2023-09-18T09:11:24;157372.28;;;21.02;99.41
38852;BME280;24605;50.092;9.182;2023-09-18T09:14:08;157490.44;;;21.49;97.68
38852;BME280;24605;50.092;9.182;2023-09-18T09:16:38;157469.44;;;21.40;96.78
38852;BME280;24605;50.092;9.182;2023-09-18T09:19:05;157591.59;;;21.88;96.80
38852;BME280;24605;50.092;9.182;2023-09-18T09:21:41;157659.88;;;22.15;95.90
38852;BME280;24605;50.092;9.182;2023-09-18T09:24:09;157675.63;;;22.21;95.09
38852;BME280;24605;50.092;9.182;2023-09-18T09:26:39;157688.75;;;22.27;96.92
38852;BME280;24605;50.092;9.182;2023-09-18T09:29:15;157721.63;;;22.40;95.08
38852;BME280;24605;50.092;9.182;2023-09-18T09:31:43;157725.59;;;22.41;93.42
38852;BME280;24605;50.092;9.182;2023-09-18T09:34:10;157599.44;;;21.91;94.97
38852;BME280;24605;50.092;9.182;2023-09-18T09:36:36;157711.09;;;22.35;92.87
38852;BME280;24605;50.092;9.182;2023-09-18T09:39:06;157716.38;;;22.37;92.09
38852;BME280;24605;50.092;9.182;2023-09-18T09:41:33;157662.50;;;22.16;91.77
38852;BME280;24605;50.092;9.182;2023-09-18T09:44:00;157692.72;;;22.28;91.94
38852;BME280;24605;50.092;9.182;2023-09-18T09:46:27;157619.16;;;21.99;91.45
38852;BME280;24605;50.092;9.182;2023-09-18T09:49:01;157553.50;;;21.73;92.54
38852;BME280;24605;50.092;9.182;2023-09-18T09:51:28;157521.97;;;21.61;93.33
38852;BME280;24605;50.092;9.182;2023-09-18T09:53:54;157497.00;;;21.51;93.64
38852;BME280;24605;50.092;9.182;2023-09-18T09:56:40;157523.31;;;21.62;93.82
38852;BME280;24605;50.092;9.182;2023-09-18T09:59:06;157585.03;;;21.86;92.46
38852;BME280;24605;50.092;9.182;2023-09-18T10:01:34;157642.78;;;22.09;90.54
38852;BME280;24605;50.092;9.182;2023-09-18T10:04:03;157591.59;;;21.88;91.99
38852;BME280;24605;50.092;9.182;2023-09-18T10:06:34;157611.25;;;21.96;91.84
38852;BME280;24605;50.092;9.182;2023-09-18T10:09:02;157621.78;;;22.00;91.56
38852;BME280;24605;50.092;9.182;2023-09-18T10:11:31;157545.59;;;21.70;92.92
38852;BME280;24605;50.092;9.182;2023-09-18T10:13:59;157525.94;;;21.63;94.05
38852;BME280;24605;50.092;9.182;2023-09-18T10:16:30;157542.97;;;21.69;93.42
38852;BME280;24605;50.092;9.182;2023-09-18T10:19:04;157514.13;;;21.58;93.79
38852;BME280;24605;50.092;9.182;2023-09-18T10:21:39;157528.56;;;21.64;94.06
38852;BME280;24605;50.092;9.182;2023-09-18T10:24:13;157448.44;;;21.32;95.07
38852;BME280;24605;50.092;9.182;2023-09-18T10:26:48;157437.91;;;21.28;95.73
38852;BME280;24605;50.092;9.182;2023-09-18T10:29:17;157419.53;;;21.21;95.82
38852;BME280;24605;50.092;9.182;2023-09-18T10:31:47;157381.47;;;21.06;97.08
38852;BME280;24605;50.092;9.182;2023-09-18T10:34:16;157356.53;;;20.96;97.17
38852;BME280;24605;50.092;9.182;2023-09-18T10:36:44;157398.53;;;21.12;97.08
38852;BME280;24605;50.092;9.182;2023-09-18T10:39:12;157376.22;;;21.04;97.69
38852;BME280;24605;50.092;9.182;2023-09-18T10:41:47;157367.03;;;21.00;97.41
38852;BME280;24605;50.092;9.182;2023-09-18T10:44:14;157440.53;;;21.29;96.46
38852;BME280;24605;50.092;9.182;2023-09-18T10:46:41;157407.72;;;21.16;96.44
38852;BME280;24605;50.092;9.182;2023-09-18T10:49:08;157461.53;;;21.37;96.21
38852;BME280;24605;50.092;9.182;2023-09-18T10:51:34;157439.25;;;21.28;96.01
38852;BME280;24605;50.092;9.182;2023-09-18T10:54:07;157535.13;;;21.66;94.63
38852;BME280;24605;50.092;9.182;2023-09-18T10:56:34;157602.06;;;21.92;93.41
38852;BME280;24605;50.092;9.182;2023-09-18T10:59:02;157630.97;;;22.04;92.65
38852;BME280;24605;50.092;9.182;2023-09-18T11:01:32;157613.88;;;21.97;93.54
38852;BME280;24605;50.092;9.182;2023-09-18T11:04:00;157696.63;;;22.30;91.82
38852;BME280;24605;50.092;9.182;2023-09-18T11:06:27;157695.34;;;22.29;91.33
38852;BME280;24605;50.092;9.182;2023-09-18T11:08:59;157734.78;;;22.45;91.43
38852;BME280;24605;50.092;9.182;2023-09-18T11:11:29;157616.53;;;21.98;92.18
38852;BME280;24605;50.092;9.182;2023-09-18T11:13:58;157655.91;;;22.14;91.93
38852;BME280;24605;50.092;9.182;2023-09-18T11:16:36;157577.13;;;21.83;92.92
38852;BME280;24605;50.092;9.182;2023-09-18T11:19:08;157502.25;;;21.53;95.23
38852;BME280;24605;50.092;9.182;2023-09-18T11:21:36;157578.44;;;21.83;93.09
38852;BME280;24605;50.092;9.182;2023-09-18T11:24:04;157673.00;;;22.20;91.66
38852;BME280;24605;50.092;9.182;2023-09-18T11:26:31;157669.06;;;22.19;90.99
38852;BME280;24605;50.092;9.182;2023-09-18T11:29:01;157671.69;;;22.20;91.56
38852;BME280;24605;50.092;9.182;2023-09-18T11:31:48;157734.78;;;22.45;90.12
38852;BME280;24605;50.092;9.182;2023-09-18T11:34:20;157776.81;;;22.61;89.34
38852;BME280;24605;50.092;9.182;2023-09-18T11:36:47;157814.94;;;22.76;86.85
38852;BME280;24605;50.092;9.182;2023-09-18T11:39:32;157834.59;;;22.84;88.10
38852;BME280;24605;50.092;9.182;2023-09-18T11:42:07;157743.97;;;22.48;88.47
38852;BME280;24605;50.092;9.182;2023-09-18T11:44:35;157696.63;;;22.30;89.56
38852;BME280;24605;50.092;9.182;2023-09-18T11:47:09;157807.03;;;22.73;88.43
38852;BME280;24605;50.092;9.182;2023-09-18T11:49:38;157879.28;;;23.01;87.92
38852;BME280;24605;50.092;9.182;2023-09-18T11:52:07;157813.59;;;22.76;88.96
38852;BME280;24605;50.092;9.182;2023-09-18T11:54:34;157809.66;;;22.74;88.24
38852;BME280;24605;50.092;9.182;2023-09-18T11:57:03;157814.94;;;22.76;87.94
38852;BME280;24605;50.092;9.182;2023-09-18T11:59:36;157828.06;;;22.81;88.43
38852;BME280;24605;50.092;9.182;2023-09-18T12:02:03;157842.50;;;22.87;87.98
38852;BME280;24605;50.092;9.182;2023-09-18T12:04:34;157767.63;;;22.58;89.18
38852;BME280;24605;50.092;9.182;2023-09-18T12:07:01;157824.13;;;22.80;89.19
38852;BME280;24605;50.092;9.182;2023-09-18T12:09:28;157955.56;;;23.31;87.86
38852;BME280;24605;50.092;9.182;2023-09-18T12:11:55;157987.13;;;23.44;87.65
38852;BME280;24605;50.092;9.182;2023-09-18T12:14:22;157874.06;;;22.99;88.03
38852;BME280;24605;50.092;9.182;2023-09-18T12:16:49;157724.25;;;22.41;89.59
38852;BME280;24605;50.092;9.182;2023-09-18T12:19:16;157683.53;;;22.25;92.65
38852;BME280;24605;50.092;9.182;2023-09-18T12:21:45;157743.97;;;22.48;91.15
38852;BME280;24605;50.092;9.182;2023-09-18T12:24:13;157822.78;;;22.79;90.83
38852;BME280;24605;50.092;9.182;2023-09-18T12:26:40;157726.88;;;22.42;90.81
38852;BME280;24605;50.092;9.182;2023-09-18T12:29:06;157721.63;;;22.40;92.77
38852;BME280;24605;50.092;9.182;2023-09-18T12:31:35;157792.56;;;22.67;91.80
38852;BME280;24605;50.092;9.182;2023-09-18T12:34:02;157834.59;;;22.84;90.67
38852;BME280;24605;50.092;9.182;2023-09-18T12:36:29;157889.81;;;23.06;90.09
38852;BME280;24605;50.092;9.182;2023-09-18T12:38:59;157958.22;;;23.33;88.47
38852;BME280;24605;50.092;9.182;2023-09-18T12:41:26;158005.53;;;23.51;87.61
38852;BME280;24605;50.092;9.182;2023-09-18T12:43:53;158010.81;;;23.53;87.01
38852;BME280;24605;50.092;9.182;2023-09-18T12:46:20;158044.94;;;23.67;85.45
38852;BME280;24605;50.092;9.182;2023-09-18T12:48:47;158039.69;;;23.65;87.10